Main page
METAR-TAF:

METAR-TAF

Airports :

Sint Maarten, Netherlands Antilles

Princess Juliana International Airport

latitude: 18-03N, longitude: 063-07W, elevation: 4 m

Current weather observation

The report was made 31 minutes ago, at 20:00 UTC
Wind 11 kt from the East/Northeast, varying between North/Northeast and East
Temperature 27°C
Humidity 74%
Pressure 1016 hPa
Visibility 10 km or more
Scattered clouds at a height of 1700 ft
showers in vicinity

METAR: TNCM 182000Z 06011KT 030V100 9999 VCSH SCT017 27/22 Q1016 A3000 NOSIG

Time: 16:31 (20:31 UTC)

Forecast

The report was made 3 hours and 11 minutes ago, at 17:20 UTC
Forecast valid from 18 at 18 UTC to 19 at 18 UTC
Wind 15 kt from the East
Visibility: 10 km
Scattered clouds at a height of 2200 ft
showers in vicinity
From 18 at 2300 UTC
Wind 10 kt from the East/Northeast
Visibility: 10 km
Few clouds at a height of 1800 ft

TAF: TNCM 181720Z 1818/1918 08015KT P6SM VCSH SCT022 FM182300 07010KT P6SM FEW018

Weather observations and forecasts of more than 4000 airports (METAR and TAF reports).

The available stations are represented by yellow and red dots on the map.

Hover mouse over dot to see the name of the station.

Then click to see weather observations and forecasts.

To change the map : click on the green buttons with a black cross to zoom in, on the green button with a dash to zoom out, or on the green arrows for adjacent maps.


METAR-TAF: